createdAt,value
2022-12-25T00:01:20.485Z,7.73
2022-12-25T00:03:47.429Z,7.70
2022-12-25T00:06:14.087Z,7.72
2022-12-25T00:08:40.735Z,7.71
2022-12-25T00:11:13.733Z,7.71
2022-12-25T00:13:41.010Z,7.76
2022-12-25T00:16:13.270Z,7.76
2022-12-25T00:18:39.912Z,7.78
2022-12-25T00:21:07.232Z,7.77
2022-12-25T00:23:35.113Z,7.76
2022-12-25T00:26:10.890Z,7.75
2022-12-25T00:28:37.502Z,7.75
2022-12-25T00:31:28.272Z,7.77
2022-12-25T00:33:55.031Z,7.78
2022-12-25T00:36:23.672Z,7.81
2022-12-25T00:38:50.342Z,7.85
2022-12-25T00:41:39.689Z,7.86
2022-12-25T00:44:09.337Z,7.88
2022-12-25T00:46:37.751Z,7.89
2022-12-25T00:49:05.241Z,7.88
2022-12-25T00:51:32.131Z,7.90
2022-12-25T00:53:59.568Z,7.93
2022-12-25T00:56:26.194Z,7.97
2022-12-25T00:58:54.465Z,7.99
2022-12-25T01:01:41.182Z,7.96
2022-12-25T01:04:27.542Z,8.01
2022-12-25T01:07:20.125Z,8.04
2022-12-25T01:10:06.501Z,7.99
2022-12-25T01:12:35.990Z,7.97
2022-12-25T01:15:06.619Z,7.96
2022-12-25T01:17:37.829Z,7.94
2022-12-25T01:20:25.086Z,7.90
2022-12-25T01:22:51.687Z,7.88
2022-12-25T01:25:47.238Z,7.79
2022-12-25T01:28:15.879Z,7.73
2022-12-25T01:30:49.886Z,7.66
2022-12-25T01:33:36.410Z,7.56
2022-12-25T01:39:06.773Z,7.35
2022-12-25T01:41:35.400Z,7.29
2022-12-25T01:44:07.713Z,7.20
2022-12-25T01:46:36.635Z,7.12
2022-12-25T01:49:15.870Z,7.02
2022-12-25T01:51:50.410Z,6.91
2022-12-25T01:54:24.003Z,6.86
2022-12-25T01:56:57.820Z,6.79
2022-12-25T01:59:26.194Z,6.74
2022-12-25T02:02:08.577Z,6.62
2022-12-25T02:05:53.241Z,6.62
2022-12-25T02:08:22.014Z,6.55
2022-12-25T02:10:48.963Z,6.53
2022-12-25T02:13:18.985Z,6.48
2022-12-25T02:16:09.012Z,6.45
2022-12-25T02:18:44.094Z,6.40
2022-12-25T02:21:52.448Z,6.37
2022-12-25T02:24:36.553Z,6.31
2022-12-25T02:27:11.429Z,6.25
2022-12-25T02:30:10.313Z,6.18
2022-12-25T02:32:46.114Z,6.13
2022-12-25T02:35:24.180Z,6.07
2022-12-25T02:38:13.427Z,6.06
2022-12-25T02:40:44.956Z,6.01
2022-12-25T02:43:35.726Z,5.99
2022-12-25T02:46:28.459Z,5.95
2022-12-25T02:49:17.569Z,5.93
2022-12-25T02:52:05.429Z,5.88
2022-12-25T02:54:55.526Z,5.85
2022-12-25T02:57:45.014Z,5.70
2022-12-25T03:00:31.567Z,5.61
2022-12-25T03:03:19.480Z,5.56
2022-12-25T03:06:05.690Z,5.51
2022-12-25T03:08:39.364Z,5.47
2022-12-25T03:11:27.552Z,5.45
2022-12-25T03:14:17.852Z,5.46
2022-12-25T03:16:52.964Z,5.45
2022-12-25T03:19:58.611Z,5.46
2022-12-25T03:22:48.478Z,5.43
2022-12-25T03:25:34.222Z,5.42
2022-12-25T03:28:01.718Z,5.41
2022-12-25T03:31:06.149Z,5.37
2022-12-25T03:34:16.015Z,5.34
2022-12-25T03:37:13.498Z,5.29
2022-12-25T03:39:54.646Z,5.24
2022-12-25T03:42:48.611Z,5.19
2022-12-25T03:45:56.790Z,5.17
2022-12-25T03:48:44.710Z,5.14
2022-12-25T03:51:35.929Z,5.10
2022-12-25T03:54:25.461Z,5.08
2022-12-25T03:57:13.612Z,5.00
2022-12-25T03:59:58.959Z,5.00
2022-12-25T04:02:44.443Z,4.95
2022-12-25T04:05:29.755Z,4.96
2022-12-25T04:08:15.629Z,4.95
2022-12-25T04:11:02.774Z,4.94
2022-12-25T04:13:48.221Z,4.92
2022-12-25T04:16:33.502Z,4.89
2022-12-25T04:19:20.032Z,4.84
2022-12-25T04:22:05.541Z,4.86
2022-12-25T04:24:56.950Z,4.87
2022-12-25T04:27:42.727Z,4.84
2022-12-25T04:30:31.542Z,4.84
2022-12-25T04:33:20.174Z,4.87
2022-12-25T04:36:11.769Z,4.87
2022-12-25T04:38:41.018Z,4.83
2022-12-25T04:41:09.949Z,4.78
2022-12-25T04:43:37.534Z,4.77
2022-12-25T04:46:07.765Z,4.79
2022-12-25T04:48:39.123Z,4.83
2022-12-25T04:51:24.252Z,4.85
2022-12-25T04:53:55.176Z,4.83
2022-12-25T04:56:23.754Z,4.76
2022-12-25T04:58:50.725Z,4.68
2022-12-25T05:01:18.381Z,4.61
2022-12-25T05:03:49.535Z,4.56
2022-12-25T05:06:19.564Z,4.56
2022-12-25T05:08:49.947Z,4.50
2022-12-25T05:11:20.728Z,4.49
2022-12-25T05:13:57.503Z,4.43
2022-12-25T05:16:27.994Z,4.46
2022-12-25T05:18:56.164Z,4.46
2022-12-25T05:21:28.518Z,4.48
2022-12-25T05:23:57.184Z,4.48
2022-12-25T05:26:26.253Z,4.43
2022-12-25T05:28:53.662Z,4.38
2022-12-25T05:31:23.936Z,4.43
2022-12-25T05:33:54.766Z,4.44
2022-12-25T05:36:21.558Z,4.51
2022-12-25T05:38:52.751Z,4.57
2022-12-25T05:41:33.960Z,4.59
2022-12-25T05:44:07.393Z,4.60
2022-12-25T05:46:34.213Z,4.61
2022-12-25T05:49:03.357Z,4.64
2022-12-25T05:51:31.593Z,4.62
2022-12-25T05:54:02.279Z,4.68
2022-12-25T05:56:28.961Z,4.67
2022-12-25T05:58:57.373Z,4.66
2022-12-25T06:01:31.607Z,4.70
2022-12-25T06:04:05.756Z,4.66
2022-12-25T06:06:40.154Z,4.60
2022-12-25T06:09:13.800Z,4.56
2022-12-25T06:11:42.047Z,4.52
2022-12-25T06:14:14.881Z,4.46
2022-12-25T06:16:43.071Z,4.45
2022-12-25T06:19:11.775Z,4.45
2022-12-25T06:21:43.706Z,4.42
2022-12-25T06:24:20.822Z,4.41
2022-12-25T06:26:48.599Z,4.39
2022-12-25T06:29:22.817Z,4.39
2022-12-25T06:31:59.485Z,4.40
2022-12-25T06:34:27.557Z,4.41
2022-12-25T06:36:54.471Z,4.47
2022-12-25T06:39:25.624Z,4.54
2022-12-25T06:41:54.103Z,4.58
2022-12-25T06:44:24.636Z,4.61
2022-12-25T06:46:55.113Z,4.66
2022-12-25T06:49:22.438Z,4.69
2022-12-25T06:51:52.634Z,4.79
2022-12-25T06:54:22.140Z,4.88
2022-12-25T06:56:49.659Z,4.95
2022-12-25T06:59:17.144Z,5.02
2022-12-25T07:01:51.269Z,5.08
2022-12-25T07:04:40.267Z,5.13
2022-12-25T07:07:09.569Z,5.20
2022-12-25T07:09:38.970Z,5.28
2022-12-25T07:12:23.614Z,5.31
2022-12-25T07:14:53.182Z,5.40
2022-12-25T07:17:23.885Z,5.44
2022-12-25T07:19:50.480Z,5.48
2022-12-25T07:22:17.692Z,5.52
2022-12-25T07:24:44.397Z,5.60
2022-12-25T07:27:11.143Z,5.65
2022-12-25T07:29:37.935Z,5.68
2022-12-25T07:32:04.943Z,5.77
2022-12-25T07:34:31.683Z,5.78
2022-12-25T07:36:58.268Z,5.82
2022-12-25T07:39:24.862Z,5.87
2022-12-25T07:41:51.627Z,5.96
2022-12-25T07:44:18.401Z,6.02
2022-12-25T07:46:45.362Z,6.04
2022-12-25T07:49:12.599Z,6.07
2022-12-25T07:51:40.332Z,6.17
2022-12-25T07:54:06.976Z,6.25
2022-12-25T07:56:33.644Z,6.33
2022-12-25T07:59:00.344Z,6.41
2022-12-25T08:01:28.033Z,6.41
2022-12-25T08:03:57.372Z,6.49
2022-12-25T08:06:29.902Z,6.52
2022-12-25T08:09:12.994Z,6.60
2022-12-25T08:11:40.061Z,6.65
2022-12-25T08:14:08.382Z,6.71
2022-12-25T08:16:35.983Z,6.76
2022-12-25T08:19:02.703Z,6.81
2022-12-25T08:21:29.322Z,6.85
2022-12-25T08:23:55.937Z,6.92
2022-12-25T08:26:23.807Z,6.98
2022-12-25T08:28:51.377Z,7.04
2022-12-25T08:31:27.727Z,7.10
2022-12-25T08:33:57.790Z,7.15
2022-12-25T08:36:26.620Z,7.15
2022-12-25T08:39:02.060Z,7.21
2022-12-25T08:41:40.413Z,7.28
2022-12-25T08:44:07.282Z,7.36
2022-12-25T08:46:33.952Z,7.38
2022-12-25T08:49:00.783Z,7.30
2022-12-25T08:51:27.389Z,7.38
2022-12-25T08:53:59.435Z,7.53
2022-12-25T08:56:26.833Z,7.62
2022-12-25T08:58:53.529Z,7.70
2022-12-25T09:01:20.201Z,7.73
2022-12-25T09:03:46.935Z,7.80
2022-12-25T09:06:15.670Z,7.86
2022-12-25T09:08:48.691Z,7.89
2022-12-25T09:11:18.064Z,7.82
2022-12-25T09:13:44.670Z,7.80
2022-12-25T09:16:18.034Z,7.93
2022-12-25T09:18:44.662Z,7.94
2022-12-25T09:21:13.285Z,8.16
2022-12-25T09:23:39.822Z,8.29
2022-12-25T09:26:08.939Z,8.39
2022-12-25T09:28:35.630Z,8.44
2022-12-25T09:31:02.931Z,8.57
2022-12-25T09:33:30.130Z,8.61
2022-12-25T09:35:59.160Z,8.78
2022-12-25T09:38:26.040Z,8.90
2022-12-25T09:41:03.443Z,8.95
2022-12-25T09:43:33.520Z,9.01
2022-12-25T09:46:02.362Z,9.16
2022-12-25T09:48:36.367Z,9.22
2022-12-25T09:51:13.069Z,9.24
2022-12-25T09:53:52.951Z,9.32
2022-12-25T09:56:27.210Z,9.35
2022-12-25T09:58:54.614Z,9.40
2022-12-25T10:02:03.364Z,9.48
2022-12-25T10:04:42.765Z,9.53
2022-12-25T10:07:41.428Z,9.61
2022-12-25T10:10:30.770Z,9.74
2022-12-25T10:13:22.920Z,9.79
2022-12-25T10:16:01.684Z,9.74
2022-12-25T10:18:31.012Z,9.94
2022-12-25T10:21:00.916Z,9.96
2022-12-25T10:23:31.026Z,9.96
2022-12-25T10:25:57.615Z,10.01
2022-12-25T10:28:34.286Z,10.06
2022-12-25T10:31:15.745Z,10.16
2022-12-25T10:33:42.331Z,10.25
2022-12-25T10:36:09.759Z,10.31
2022-12-25T10:38:39.171Z,10.36
2022-12-25T10:41:43.353Z,10.48
2022-12-25T10:44:21.549Z,10.53
2022-12-25T10:46:50.443Z,10.53
2022-12-25T10:49:19.531Z,10.62
2022-12-25T10:51:46.187Z,10.67
2022-12-25T10:54:35.649Z,10.70
2022-12-25T10:57:03.936Z,10.79
2022-12-25T10:59:35.875Z,10.86
2022-12-25T11:02:13.416Z,10.91
2022-12-25T11:04:40.258Z,10.89
2022-12-25T11:07:18.602Z,10.92
2022-12-25T11:10:05.257Z,11.00
2022-12-25T11:12:37.479Z,11.04
2022-12-25T11:15:26.504Z,11.08
2022-12-25T11:17:53.159Z,11.15
2022-12-25T11:20:20.676Z,11.17
2022-12-25T11:22:49.158Z,11.21
2022-12-25T11:25:23.728Z,11.21
2022-12-25T11:28:04.275Z,11.32
2022-12-25T11:30:33.741Z,11.34
2022-12-25T11:33:12.552Z,11.43
2022-12-25T11:35:47.782Z,11.51
2022-12-25T11:38:14.393Z,11.46
2022-12-25T11:40:49.341Z,11.59
2022-12-25T11:43:24.507Z,11.62
2022-12-25T11:46:17.828Z,11.56
2022-12-25T11:48:49.940Z,11.60
2022-12-25T11:51:17.683Z,11.60
2022-12-25T11:53:52.521Z,11.61
2022-12-25T11:56:23.902Z,11.59
2022-12-25T11:58:53.617Z,11.74
2022-12-25T12:01:32.454Z,11.85
2022-12-25T12:04:06.896Z,11.91
2022-12-25T12:06:48.170Z,11.87
2022-12-25T12:09:26.252Z,11.94
2022-12-25T12:12:07.874Z,11.97
2022-12-25T12:14:40.301Z,12.09
2022-12-25T12:17:11.774Z,12.09
2022-12-25T12:19:39.090Z,12.16
2022-12-25T12:22:05.918Z,12.22
2022-12-25T12:24:40.800Z,12.23
2022-12-25T12:27:25.424Z,12.18
2022-12-25T12:29:55.727Z,12.19
2022-12-25T12:32:36.647Z,12.31
2022-12-25T12:35:13.900Z,12.34
2022-12-25T12:37:42.040Z,12.35
2022-12-25T12:40:25.571Z,12.35
2022-12-25T12:42:53.445Z,12.33
2022-12-25T12:45:26.304Z,12.17
2022-12-25T12:48:01.538Z,12.24
2022-12-25T12:50:37.321Z,12.24
2022-12-25T12:53:22.057Z,12.21
2022-12-25T12:55:49.237Z,11.99
2022-12-25T12:58:33.443Z,11.97
2022-12-25T13:01:09.167Z,11.95
2022-12-25T13:03:57.151Z,11.92
2022-12-25T13:06:42.575Z,12.04
2022-12-25T13:09:58.154Z,12.11
2022-12-25T13:12:25.192Z,12.05
2022-12-25T13:14:52.081Z,12.07
2022-12-25T13:17:23.538Z,12.03
2022-12-25T13:19:59.620Z,12.03
2022-12-25T13:22:36.481Z,12.01
2022-12-25T13:25:17.166Z,11.96
2022-12-25T13:27:43.770Z,11.95
2022-12-25T13:30:26.982Z,11.86
2022-12-25T13:32:56.174Z,11.85
2022-12-25T13:35:23.691Z,11.86
2022-12-25T13:37:50.999Z,11.82
2022-12-25T13:40:24.806Z,11.81
2022-12-25T13:42:58.508Z,11.79
2022-12-25T13:45:28.134Z,11.76
2022-12-25T13:48:10.077Z,11.78
2022-12-25T13:50:37.038Z,11.66
2022-12-25T13:53:13.314Z,11.71
2022-12-25T13:55:41.841Z,11.66
2022-12-25T13:58:20.929Z,11.65
2022-12-25T14:00:51.057Z,11.63
2022-12-25T14:03:42.676Z,11.63
2022-12-25T14:06:18.347Z,11.59
2022-12-25T14:08:45.637Z,11.53
2022-12-25T14:11:18.084Z,11.53
2022-12-25T14:13:46.794Z,11.52
2022-12-25T14:16:17.017Z,11.43
2022-12-25T14:18:58.078Z,11.46
2022-12-25T14:21:35.206Z,11.44
2022-12-25T14:24:03.076Z,11.41
2022-12-25T14:26:32.779Z,11.37
2022-12-25T14:29:05.502Z,11.36
2022-12-25T14:31:39.683Z,11.30
2022-12-25T14:46:35.910Z,11.31
2022-12-25T14:49:09.587Z,11.21
2022-12-25T14:51:38.911Z,11.17
2022-12-25T14:54:16.278Z,11.15
2022-12-25T14:56:48.791Z,11.10
2022-12-25T14:59:18.822Z,11.07
2022-12-25T15:01:52.269Z,11.07
2022-12-25T15:04:20.727Z,11.04
2022-12-25T15:07:07.306Z,11.04
2022-12-25T15:09:36.008Z,11.02
2022-12-25T15:12:03.329Z,10.99
2022-12-25T15:14:31.542Z,10.99
2022-12-25T15:17:00.774Z,10.96
2022-12-25T15:19:38.248Z,10.92
2022-12-25T15:22:05.935Z,10.88
2022-12-25T15:24:32.570Z,10.87
2022-12-25T15:27:00.724Z,10.83
2022-12-25T15:30:00.247Z,10.80
2022-12-25T15:32:24.354Z,10.79
2022-12-25T15:34:51.206Z,10.76
2022-12-25T15:37:19.051Z,10.73
2022-12-25T15:39:46.326Z,10.62
2022-12-25T15:42:19.566Z,10.71
2022-12-25T15:44:46.439Z,10.70
2022-12-25T15:47:14.770Z,10.67
2022-12-25T15:49:42.191Z,10.67
2022-12-25T15:52:12.661Z,10.65
2022-12-25T15:54:39.241Z,10.64
2022-12-25T15:57:13.747Z,10.63
2022-12-25T15:59:40.326Z,10.61
2022-12-25T16:02:15.796Z,10.61
2022-12-25T16:04:42.588Z,10.62
2022-12-25T16:07:20.735Z,10.60
2022-12-25T16:09:47.688Z,10.61
2022-12-25T16:12:14.316Z,10.59
2022-12-25T16:14:41.278Z,10.57
2022-12-25T16:17:11.471Z,10.57
2022-12-25T16:19:38.088Z,10.55
2022-12-25T16:22:18.531Z,10.57
2022-12-25T16:24:45.106Z,10.57
2022-12-25T16:27:11.643Z,10.57
2022-12-25T16:29:38.223Z,10.57
2022-12-25T16:32:04.883Z,10.57
2022-12-25T16:34:31.503Z,10.56
2022-12-25T16:36:58.042Z,10.55
2022-12-25T16:39:24.807Z,10.54
2022-12-25T16:41:51.394Z,10.52
2022-12-25T16:44:17.971Z,10.54
2022-12-25T16:46:44.668Z,10.52
2022-12-25T16:49:11.263Z,10.54
2022-12-25T16:51:37.907Z,10.52
2022-12-25T16:54:04.790Z,10.51
2022-12-25T16:56:32.426Z,10.51
2022-12-25T16:58:59.333Z,10.49
2022-12-25T17:01:26.041Z,10.51
2022-12-25T17:03:52.944Z,10.47
2022-12-25T17:06:25.556Z,10.45
2022-12-25T17:08:53.139Z,10.45
2022-12-25T17:11:24.266Z,10.45
2022-12-25T17:13:50.911Z,10.45
2022-12-25T17:16:20.540Z,10.41
2022-12-25T17:18:47.396Z,10.39
2022-12-25T17:21:17.047Z,10.37
2022-12-25T17:23:45.054Z,10.36
2022-12-25T17:26:11.738Z,10.37
2022-12-25T17:28:38.686Z,10.35
2022-12-25T17:31:10.951Z,10.36
2022-12-25T17:33:43.183Z,10.34
2022-12-25T17:36:18.647Z,10.32
2022-12-25T17:38:46.376Z,10.29
2022-12-25T17:41:14.788Z,10.28
2022-12-25T17:43:42.499Z,10.18
2022-12-25T17:46:11.633Z,10.12
2022-12-25T17:48:38.577Z,10.07
2022-12-25T17:51:08.549Z,10.06
2022-12-25T17:53:39.855Z,10.04
2022-12-25T17:56:07.819Z,10.01
2022-12-25T17:58:34.522Z,10.00
2022-12-25T18:01:10.164Z,9.97
2022-12-25T18:03:37.096Z,9.91
2022-12-25T18:06:05.912Z,9.96
2022-12-25T18:08:38.891Z,9.95
2022-12-25T18:11:09.668Z,9.94
2022-12-25T18:13:37.106Z,9.87
2022-12-25T18:16:07.844Z,9.87
2022-12-25T18:18:35.164Z,9.87
2022-12-25T18:21:02.309Z,9.84
2022-12-25T18:23:29.621Z,9.81
2022-12-25T18:25:56.662Z,9.81
2022-12-25T18:28:23.396Z,9.80
2022-12-25T18:30:50.224Z,9.78
2022-12-25T18:33:16.784Z,9.73
2022-12-25T18:35:44.354Z,9.75
2022-12-25T18:38:11.755Z,9.75
2022-12-25T18:40:48.200Z,9.74
2022-12-25T18:43:15.867Z,9.73
2022-12-25T18:45:43.162Z,9.73
2022-12-25T18:48:10.816Z,9.74
2022-12-25T18:50:39.748Z,9.71
2022-12-25T18:53:07.397Z,9.72
2022-12-25T18:55:34.082Z,9.70
2022-12-25T18:58:01.154Z,9.68
2022-12-25T19:00:28.132Z,9.65
2022-12-25T19:02:59.314Z,9.62
2022-12-25T19:05:26.273Z,9.64
2022-12-25T19:07:52.913Z,9.60
2022-12-25T19:10:19.619Z,9.60
2022-12-25T19:12:46.154Z,9.56
2022-12-25T19:15:13.150Z,9.53
2022-12-25T19:17:39.719Z,9.45
2022-12-25T19:20:06.821Z,9.44
2022-12-25T19:22:33.427Z,9.41
2022-12-25T19:25:00.222Z,9.38
2022-12-25T19:27:26.871Z,9.35
2022-12-25T19:29:53.580Z,9.35
2022-12-25T19:32:20.187Z,9.34
2022-12-25T19:34:46.700Z,9.31
2022-12-25T19:37:13.352Z,9.30
2022-12-25T19:39:45.907Z,9.29
2022-12-25T19:42:14.359Z,9.27
2022-12-25T19:44:41.070Z,9.25
2022-12-25T19:47:08.970Z,9.23
2022-12-25T19:49:35.628Z,9.22
2022-12-25T19:52:02.525Z,9.23
2022-12-25T19:54:29.580Z,9.23
2022-12-25T19:56:56.493Z,9.24
2022-12-25T19:59:23.387Z,9.25
2022-12-25T20:01:50.516Z,9.26
2022-12-25T20:04:18.263Z,9.27
2022-12-25T20:06:45.358Z,9.24
2022-12-25T20:09:15.505Z,9.24
2022-12-25T20:11:43.539Z,9.25
2022-12-25T20:14:13.247Z,9.25
2022-12-25T20:16:40.963Z,9.23
2022-12-25T20:19:09.723Z,9.22
2022-12-25T20:21:36.329Z,9.19
2022-12-25T20:24:03.225Z,9.15
2022-12-25T20:26:32.536Z,9.16
2022-12-25T20:28:59.566Z,9.16
2022-12-25T20:31:29.393Z,9.15
2022-12-25T20:33:59.829Z,9.13
2022-12-25T20:36:29.662Z,9.14
2022-12-25T20:39:01.319Z,9.13
2022-12-25T20:41:29.505Z,9.14
2022-12-25T20:43:56.961Z,9.17
2022-12-25T20:46:24.792Z,9.18
2022-12-25T20:48:52.918Z,9.19
2022-12-25T20:51:22.615Z,9.19
2022-12-25T20:53:49.796Z,9.20
2022-12-25T20:56:18.455Z,9.21
2022-12-25T20:58:45.148Z,9.22
2022-12-25T21:01:14.671Z,9.23
2022-12-25T21:03:41.900Z,9.22
2022-12-25T21:06:09.096Z,9.23
2022-12-25T21:08:36.590Z,9.22
2022-12-25T21:11:04.699Z,9.22
2022-12-25T21:13:34.492Z,9.21
2022-12-25T21:16:04.192Z,9.21
2022-12-25T21:18:30.758Z,9.16
2022-12-25T21:20:59.137Z,9.20
2022-12-25T21:23:26.740Z,9.18
2022-12-25T21:25:53.924Z,9.19
2022-12-25T21:28:21.212Z,9.19
2022-12-25T21:30:47.843Z,9.22
2022-12-25T21:33:33.497Z,9.22
2022-12-25T21:36:10.789Z,9.22
2022-12-25T21:38:38.385Z,9.21
2022-12-25T21:41:10.093Z,9.22
2022-12-25T21:43:38.694Z,9.24
2022-12-25T21:46:08.028Z,9.24
2022-12-25T21:48:37.066Z,9.21
2022-12-25T21:51:26.765Z,9.21
2022-12-25T21:53:53.411Z,9.18
2022-12-25T21:56:20.132Z,9.21
2022-12-25T21:58:47.283Z,9.21
2022-12-25T22:01:17.121Z,9.18
2022-12-25T22:03:44.619Z,9.15
2022-12-25T22:06:30.956Z,9.15
2022-12-25T22:08:57.761Z,9.18
2022-12-25T22:11:48.935Z,9.19
2022-12-25T22:14:51.731Z,9.19
2022-12-25T22:17:47.545Z,9.17
2022-12-25T22:20:21.722Z,9.19
2022-12-25T22:22:48.736Z,9.18
2022-12-25T22:25:16.257Z,9.18
2022-12-25T22:27:44.346Z,9.18
2022-12-25T22:30:17.597Z,9.19
2022-12-25T22:32:44.757Z,9.19
2022-12-25T22:35:14.633Z,9.19
2022-12-25T22:37:42.300Z,9.18
2022-12-25T22:40:11.260Z,9.19
2022-12-25T22:42:37.892Z,9.19
2022-12-25T22:45:05.337Z,9.16
2022-12-25T22:47:32.114Z,9.19
2022-12-25T22:49:58.688Z,9.20
2022-12-25T22:52:25.297Z,9.22
2022-12-25T22:54:51.860Z,9.22
2022-12-25T22:57:18.492Z,9.20
2022-12-25T22:59:45.569Z,9.21
2022-12-25T23:02:12.267Z,9.22
2022-12-25T23:04:38.938Z,9.22
2022-12-25T23:07:05.562Z,9.19
2022-12-25T23:09:32.169Z,9.19
2022-12-25T23:11:59.185Z,9.21
2022-12-25T23:14:39.145Z,9.20
2022-12-25T23:17:32.053Z,9.15
2022-12-25T23:20:19.375Z,9.14
2022-12-25T23:23:05.178Z,9.13
2022-12-25T23:25:50.555Z,9.12
2022-12-25T23:28:40.128Z,9.11
2022-12-25T23:31:07.356Z,9.06
2022-12-25T23:33:34.095Z,9.04
2022-12-25T23:36:00.909Z,9.03
2022-12-25T23:38:27.636Z,9.03
2022-12-25T23:40:54.200Z,9.01
2022-12-25T23:43:20.856Z,9.01
2022-12-25T23:45:47.498Z,9.02
2022-12-25T23:48:14.222Z,8.99
2022-12-25T23:50:40.801Z,9.01
2022-12-25T23:53:07.396Z,9.01
2022-12-25T23:55:34.287Z,9.00
2022-12-25T23:58:00.990Z,8.96
